createdAt,value
2016-08-28T00:00:33.695Z,84.39
2016-08-28T00:01:33.504Z,84.48
2016-08-28T00:02:33.262Z,84.77
2016-08-28T00:03:33.258Z,84.39
2016-08-28T00:04:33.240Z,85.02
2016-08-28T00:05:33.246Z,85.06
2016-08-28T00:06:33.246Z,85.25
2016-08-28T00:07:33.240Z,84.87
2016-08-28T00:08:33.240Z,85.25
2016-08-28T00:09:33.244Z,85.25
2016-08-28T00:10:33.258Z,85.31
2016-08-28T00:11:33.249Z,85.25
2016-08-28T00:12:33.237Z,85.11
2016-08-28T00:13:33.237Z,85.11
2016-08-28T00:14:33.254Z,85.11
2016-08-28T00:15:33.942Z,85.11
2016-08-28T00:16:33.252Z,85.02
2016-08-28T00:17:33.239Z,85.16
2016-08-28T00:18:33.253Z,85.5
2016-08-28T00:19:33.237Z,85.78
2016-08-28T00:20:33.233Z,85.78
2016-08-28T00:21:33.249Z,85.4
2016-08-28T00:22:33.235Z,85.88
2016-08-28T00:23:33.236Z,85.98
2016-08-28T00:24:33.231Z,85.88
2016-08-28T00:25:33.228Z,85.88
2016-08-28T00:26:33.249Z,85.98
2016-08-28T00:27:33.245Z,86.18
2016-08-28T00:28:33.227Z,85.78
2016-08-28T00:29:33.229Z,86.18
2016-08-28T00:30:33.360Z,85.78
2016-08-28T00:31:33.547Z,86.56
2016-08-28T00:32:34.322Z,86.56
2016-08-28T00:33:33.238Z,86.56
2016-08-28T00:34:33.223Z,85.94
2016-08-28T00:35:33.544Z,86.46
2016-08-28T00:36:33.223Z,87.13
2016-08-28T00:37:33.223Z,86.99
2016-08-28T00:38:34.630Z,86.9
2016-08-28T00:39:34.487Z,87.09
2016-08-28T00:40:34.082Z,86.9
2016-08-28T00:41:33.224Z,87.09
2016-08-28T00:42:33.683Z,87.19
2016-08-28T00:43:33.734Z,87.38
2016-08-28T00:44:33.240Z,87.48
2016-08-28T00:45:33.454Z,87.57
2016-08-28T00:46:33.216Z,87.86
2016-08-28T00:47:33.231Z,87.38
2016-08-28T00:48:33.223Z,88.06
2016-08-28T00:49:33.214Z,88.34
2016-08-28T00:50:33.211Z,88.15
2016-08-28T00:51:33.214Z,88.01
2016-08-28T00:52:33.214Z,88.06
2016-08-28T00:53:33.210Z,88.3
2016-08-28T00:54:33.219Z,88.15
2016-08-28T00:55:33.211Z,88.87
2016-08-28T00:56:33.216Z,87.92
2016-08-28T00:57:33.202Z,88.49
2016-08-28T00:58:33.216Z,88.59
2016-08-28T00:59:33.204Z,88.39
2016-08-28T01:00:33.202Z,88.49
2016-08-28T01:01:33.203Z,88.59
2016-08-28T01:02:33.205Z,88.49
2016-08-28T01:03:33.196Z,88.49
2016-08-28T01:04:33.201Z,88.68
2016-08-28T01:05:33.196Z,88.97
2016-08-28T01:06:33.201Z,89.45
2016-08-28T01:07:34.046Z,88.78
2016-08-28T01:08:48.262Z,89.45
2016-08-28T01:09:33.297Z,89.07
2016-08-28T01:10:33.194Z,89.54
2016-08-28T01:11:33.855Z,89.74
2016-08-28T01:12:33.193Z,89.64
2016-08-28T01:13:33.189Z,89.64
2016-08-28T01:14:33.202Z,89.64
2016-08-28T01:16:33.388Z,89.64
2016-08-28T01:17:33.235Z,89.64
2016-08-28T01:18:48.101Z,90.41
2016-08-28T01:19:33.179Z,90.12
2016-08-28T01:20:33.628Z,90.03
2016-08-28T01:21:33.187Z,89.93
2016-08-28T01:22:33.186Z,90.12
2016-08-28T01:23:33.183Z,90.12
2016-08-28T01:24:33.185Z,90.51
2016-08-28T01:25:33.175Z,90.66
2016-08-28T01:26:33.171Z,90.56
2016-08-28T01:27:33.172Z,90.56
2016-08-28T01:28:33.187Z,91.08
2016-08-28T01:29:33.179Z,90.8
2016-08-28T01:30:33.167Z,90.8
2016-08-28T01:31:33.174Z,90.94
2016-08-28T01:32:33.863Z,91.47
2016-08-28T01:33:33.160Z,91.66
2016-08-28T01:34:33.179Z,91.04
2016-08-28T01:35:33.163Z,91.42
2016-08-28T01:36:33.160Z,91.13
2016-08-28T01:37:33.171Z,91.13
2016-08-28T01:38:33.172Z,91.33
2016-08-28T01:39:33.153Z,90.84
2016-08-28T01:40:33.162Z,91.13
2016-08-28T01:41:33.157Z,90.84
2016-08-28T01:42:33.162Z,90.94
2016-08-28T01:43:33.148Z,91.33
2016-08-28T01:44:33.154Z,91.23
2016-08-28T01:45:33.146Z,90.84
2016-08-28T01:46:33.162Z,91.23
2016-08-28T01:47:33.146Z,90.84
2016-08-28T01:48:33.145Z,91.52
2016-08-28T01:49:33.159Z,91.52
2016-08-28T01:50:33.814Z,91.42
2016-08-28T01:51:33.142Z,92.1
2016-08-28T01:52:33.136Z,91.52
2016-08-28T01:53:33.144Z,91.66
2016-08-28T01:54:33.134Z,91.86
2016-08-28T01:55:33.130Z,91.86
2016-08-28T01:56:34.885Z,91.47
2016-08-28T01:57:33.654Z,91.71
2016-08-28T01:58:33.140Z,92.05
2016-08-28T01:59:33.136Z,92.33
2016-08-28T02:00:33.125Z,92.43
2016-08-28T02:01:33.493Z,92.24
2016-08-28T02:02:33.140Z,92.24
2016-08-28T02:03:33.124Z,92.24
2016-08-28T02:04:33.118Z,92.82
2016-08-28T02:05:33.136Z,92.82
2016-08-28T02:06:33.118Z,92.63
2016-08-28T02:07:33.121Z,92.91
2016-08-28T02:08:33.110Z,93.3
2016-08-28T02:09:33.131Z,92.82
2016-08-28T02:10:33.110Z,92.82
2016-08-28T02:11:33.106Z,93.01
2016-08-28T02:12:33.105Z,93.1
2016-08-28T02:13:33.103Z,93.01
2016-08-28T02:14:33.102Z,92.82
2016-08-28T02:15:33.793Z,92.91
2016-08-28T02:16:33.102Z,93.01
2016-08-28T02:17:33.101Z,93.2
2016-08-28T02:18:33.108Z,93.49
2016-08-28T02:19:33.100Z,93.49
2016-08-28T02:20:33.099Z,93.68
2016-08-28T02:21:33.091Z,93.49
2016-08-28T02:22:33.096Z,93.44
2016-08-28T02:23:33.088Z,93.35
2016-08-28T02:24:33.105Z,93.73
2016-08-28T02:25:33.688Z,93.92
2016-08-28T02:26:33.236Z,94.21
2016-08-28T02:27:33.233Z,93.82
2016-08-28T02:28:33.089Z,94.31
2016-08-28T02:29:33.080Z,93.92
2016-08-28T02:30:33.238Z,94.31
2016-08-28T02:31:33.080Z,94.31
2016-08-28T02:32:33.074Z,94.31
2016-08-28T02:33:33.072Z,94.4
2016-08-28T02:34:33.822Z,94.31
2016-08-28T02:35:33.375Z,94.79
2016-08-28T02:36:33.071Z,94.21
2016-08-28T02:37:33.062Z,94.88
2016-08-28T02:38:33.072Z,94.88
2016-08-28T02:39:33.410Z,94.79
2016-08-28T02:40:33.057Z,94.69
2016-08-28T02:41:33.055Z,94.59
2016-08-28T02:42:33.075Z,94.4
2016-08-28T02:43:33.063Z,94.59
2016-08-28T02:44:33.049Z,94.69
2016-08-28T02:45:33.050Z,94.79
2016-08-28T02:46:33.047Z,94.88
2016-08-28T02:47:33.061Z,94.69
2016-08-28T02:48:33.041Z,94.98
2016-08-28T02:49:33.039Z,95.17
2016-08-28T02:50:33.037Z,95.26
2016-08-28T02:51:33.046Z,95.17
2016-08-28T02:52:33.033Z,95.17
2016-08-28T02:53:33.049Z,95.55
2016-08-28T02:54:33.030Z,95.46
2016-08-28T02:55:33.039Z,95.36
2016-08-28T02:56:33.023Z,95.26
2016-08-28T02:57:33.027Z,95.46
2016-08-28T02:58:33.026Z,95.36
2016-08-28T02:59:33.019Z,95.46
2016-08-28T03:00:33.023Z,95.41
2016-08-28T03:01:33.017Z,95.6
2016-08-28T03:02:33.018Z,95.41
2016-08-28T03:03:33.029Z,95.46
2016-08-28T03:04:33.012Z,95.21
2016-08-28T03:05:33.657Z,95.26
2016-08-28T03:07:33.892Z,95.03
2016-08-28T03:08:33.082Z,95.12
2016-08-28T03:09:32.998Z,95.89
2016-08-28T03:10:32.997Z,95.98
2016-08-28T03:11:32.993Z,95.7
2016-08-28T03:12:33.005Z,95.51
2016-08-28T03:13:32.990Z,95.7
2016-08-28T03:14:33.003Z,95.79
2016-08-28T03:15:34.421Z,95.6
2016-08-28T03:16:32.988Z,95.6
2016-08-28T03:17:32.986Z,95.7
2016-08-28T03:18:32.987Z,95.79
2016-08-28T03:19:33.297Z,95.79
2016-08-28T03:20:32.980Z,95.79
2016-08-28T03:21:32.973Z,95.51
2016-08-28T03:22:32.998Z,96.08
2016-08-28T03:23:32.974Z,96.08
2016-08-28T03:24:32.979Z,96.18
2016-08-28T03:25:32.966Z,96.18
2016-08-28T03:26:32.986Z,96.18
2016-08-28T03:27:32.963Z,95.98
2016-08-28T03:28:32.958Z,96.18
2016-08-28T03:29:32.957Z,96.47
2016-08-28T03:30:32.955Z,96.47
2016-08-28T03:31:32.957Z,96.08
2016-08-28T03:32:32.953Z,96.08
2016-08-28T03:33:32.950Z,96.27
2016-08-28T03:34:32.959Z,96.66
2016-08-28T03:35:32.943Z,96.47
2016-08-28T03:36:32.946Z,96.08
2016-08-28T03:37:32.941Z,96.47
2016-08-28T03:38:32.944Z,96.37
2016-08-28T03:39:32.941Z,96.47
2016-08-28T03:40:32.942Z,96.56
2016-08-28T03:41:32.931Z,96.56
2016-08-28T03:42:32.935Z,96.27
2016-08-28T03:43:33.238Z,96.37
2016-08-28T03:44:33.025Z,96.75
2016-08-28T03:46:33.483Z,97.33
2016-08-28T03:47:33.479Z,97.33
2016-08-28T03:48:32.921Z,96.85
2016-08-28T03:49:33.039Z,96.94
2016-08-28T03:50:32.917Z,96.85
2016-08-28T03:51:32.908Z,96.94
2016-08-28T03:52:33.659Z,96.94
2016-08-28T03:53:33.471Z,96.94
2016-08-28T03:54:32.913Z,96.75
2016-08-28T03:55:33.057Z,96.85
2016-08-28T03:56:33.003Z,96.75
2016-08-28T03:57:32.912Z,96.75
2016-08-28T03:58:32.890Z,97.18
2016-08-28T03:59:33.040Z,97.04
2016-08-28T04:00:32.887Z,97.33
2016-08-28T04:01:32.883Z,97.42
2016-08-28T04:02:32.883Z,97.33
2016-08-28T04:03:32.898Z,97.04
2016-08-28T04:04:32.880Z,97.33
2016-08-28T04:05:32.881Z,97.04
2016-08-28T04:06:32.877Z,96.94
2016-08-28T04:07:32.889Z,97.14
2016-08-28T04:08:32.881Z,97.14
2016-08-28T04:09:32.883Z,96.8
2016-08-28T04:10:32.863Z,97.47
2016-08-28T04:11:32.867Z,97.56
2016-08-28T04:12:32.873Z,97.47
2016-08-28T04:13:32.867Z,97.47
2016-08-28T04:14:32.855Z,97.66
2016-08-28T04:15:32.864Z,97.52
2016-08-28T04:16:32.848Z,97.42
2016-08-28T04:17:32.859Z,97.61
2016-08-28T04:18:32.845Z,97.52
2016-08-28T04:19:32.848Z,97.9
2016-08-28T04:20:32.846Z,97.61
2016-08-28T04:21:32.850Z,97.85
2016-08-28T04:22:32.851Z,97.76
2016-08-28T04:23:32.840Z,97.33
2016-08-28T04:24:33.209Z,97.61
2016-08-28T04:25:34.117Z,97.71
2016-08-28T04:26:34.030Z,97.61
2016-08-28T04:27:32.827Z,97.52
2016-08-28T04:28:33.439Z,98
2016-08-28T04:29:33.248Z,97.61
2016-08-28T04:30:32.829Z,97.71
2016-08-28T04:31:32.812Z,98.19
2016-08-28T04:32:34.761Z,98.33
2016-08-28T04:33:34.379Z,98.05
2016-08-28T04:34:34.413Z,98.43
2016-08-28T04:35:32.818Z,98.24
2016-08-28T04:36:33.715Z,98.24
2016-08-28T04:37:32.821Z,97.76
2016-08-28T04:38:32.799Z,98.19
2016-08-28T04:39:32.811Z,98.1
2016-08-28T04:40:32.808Z,98
2016-08-28T04:41:32.799Z,97.96
2016-08-28T04:42:32.793Z,98.14
2016-08-28T04:43:32.795Z,97.91
2016-08-28T04:44:32.800Z,97.62
2016-08-28T04:45:32.794Z,97.57
2016-08-28T04:46:32.807Z,97.47
2016-08-28T04:47:32.807Z,96.99
2016-08-28T04:48:32.793Z,96.85
2016-08-28T04:49:32.792Z,96.47
2016-08-28T04:50:32.785Z,96.12
2016-08-28T04:51:32.801Z,95.65
2016-08-28T04:52:32.789Z,95.02
2016-08-28T04:53:32.805Z,94.44
2016-08-28T04:54:32.791Z,93.33
2016-08-28T04:55:32.798Z,93.04
2016-08-28T04:56:32.792Z,92.13
2016-08-28T04:57:32.794Z,91.93
2016-08-28T04:58:32.792Z,90.34
2016-08-28T04:59:32.807Z,89.9
2016-08-28T05:00:32.805Z,88.93
2016-08-28T05:01:33.750Z,88.11
2016-08-28T05:02:33.701Z,87.09
2016-08-28T05:03:32.896Z,86.32
2016-08-28T05:04:32.802Z,85.06
2016-08-28T05:05:32.798Z,84.53
2016-08-28T05:06:32.806Z,83.51
2016-08-28T05:07:32.825Z,81.9
2016-08-28T05:08:32.817Z,81.32
2016-08-28T05:09:32.816Z,80.49
2016-08-28T05:10:33.120Z,79.37
2016-08-28T05:11:33.171Z,78.41
2016-08-28T05:12:33.425Z,78.05
2016-08-28T05:13:47.746Z,76.31
2016-08-28T05:14:32.842Z,75.67
2016-08-28T05:15:32.833Z,74.8
2016-08-28T05:16:32.838Z,74.06
2016-08-28T05:17:32.847Z,73.19
2016-08-28T05:18:32.848Z,72.35
2016-08-28T05:19:32.862Z,71.22
2016-08-28T05:20:32.858Z,70.64
2016-08-28T05:21:32.866Z,70
2016-08-28T05:22:32.872Z,69.02
2016-08-28T05:23:32.875Z,68.28
2016-08-28T05:24:32.891Z,67.8
2016-08-28T05:25:32.893Z,66.56
2016-08-28T05:26:32.908Z,65.98
2016-08-28T05:27:32.906Z,65.63
2016-08-28T05:28:32.925Z,64.56
2016-08-28T05:29:32.934Z,63.62
2016-08-28T05:30:32.925Z,63.13
2016-08-28T05:31:32.930Z,62.77
2016-08-28T05:32:32.956Z,61.54
2016-08-28T05:33:32.944Z,60.75
2016-08-28T05:34:32.952Z,60.08
2016-08-28T05:35:32.965Z,59.88
2016-08-28T05:36:32.972Z,59.42
2016-08-28T05:37:32.977Z,58.74
2016-08-28T05:38:32.997Z,58.09
2016-08-28T05:39:32.993Z,57.21
2016-08-28T05:40:33.001Z,56.62
2016-08-28T05:41:33.652Z,56.36
2016-08-28T05:42:33.831Z,56.1
2016-08-28T05:43:34.164Z,55.32
2016-08-28T05:44:34.341Z,54.73
2016-08-28T05:45:34.078Z,53.49
2016-08-28T05:46:33.071Z,53.19
2016-08-28T05:47:33.063Z,53.03
2016-08-28T05:48:33.069Z,52.83
2016-08-28T05:49:33.081Z,52.27
2016-08-28T05:51:33.467Z,50.9
2016-08-28T05:52:33.115Z,50.73
2016-08-28T05:53:33.119Z,50.24
2016-08-28T05:54:33.140Z,49.46
2016-08-28T05:55:33.418Z,48.99
2016-08-28T05:56:33.152Z,48.6
2016-08-28T05:57:33.169Z,48.14
2016-08-28T05:58:33.179Z,47.26
2016-08-28T05:59:33.184Z,47.36
2016-08-28T06:00:33.193Z,47.16
2016-08-28T06:01:33.199Z,46.67
2016-08-28T06:02:33.209Z,46.5
2016-08-28T06:03:33.226Z,46.01
2016-08-28T06:04:33.229Z,45.81
2016-08-28T06:05:33.243Z,45.91
2016-08-28T06:06:33.256Z,45.52
2016-08-28T06:07:33.262Z,45.13
2016-08-28T06:08:33.272Z,44.85
2016-08-28T06:09:33.297Z,44.27
2016-08-28T06:10:33.295Z,43.58
2016-08-28T06:11:33.325Z,43.38
2016-08-28T06:12:34.018Z,42.7
2016-08-28T06:13:33.339Z,42.6
2016-08-28T06:14:33.347Z,42.5
2016-08-28T06:15:33.370Z,42.02
2016-08-28T06:16:33.366Z,42.21
2016-08-28T06:17:33.391Z,41.89
2016-08-28T06:18:33.386Z,41.99
2016-08-28T06:19:34.466Z,41.41
2016-08-28T06:20:33.461Z,41.5
2016-08-28T06:21:33.874Z,41.33
2016-08-28T06:22:33.432Z,41.31
2016-08-28T06:23:33.454Z,41.03
2016-08-28T06:24:33.454Z,40.94
2016-08-28T06:25:34.990Z,41.03
2016-08-28T06:26:33.477Z,40.66
2016-08-28T06:27:33.494Z,40.47
2016-08-28T06:28:33.499Z,40.37
2016-08-28T06:29:33.531Z,39.88
2016-08-28T06:30:34.132Z,39.31
2016-08-28T06:34:33.974Z,39.03
2016-08-28T06:38:33.626Z,38.35
2016-08-28T06:39:33.626Z,38.06
2016-08-28T06:40:33.645Z,37.96
2016-08-28T06:41:33.654Z,37.96
2016-08-28T06:42:33.662Z,37.86
2016-08-28T06:43:33.676Z,37.86
2016-08-28T06:44:33.704Z,37.56
2016-08-28T06:45:33.699Z,37.66
2016-08-28T06:46:33.708Z,37.76
2016-08-28T06:47:33.723Z,37.78
2016-08-28T06:48:33.739Z,37.48
2016-08-28T06:49:33.750Z,37.78
2016-08-28T06:50:33.778Z,37.9
2016-08-28T06:51:33.770Z,37.7
2016-08-28T06:52:33.799Z,37.11
2016-08-28T06:53:33.796Z,36.52
2016-08-28T06:54:34.501Z,36.82
2016-08-28T06:55:33.826Z,36.91
2016-08-28T06:56:33.836Z,37.01
2016-08-28T06:57:33.847Z,36.42
2016-08-28T06:58:33.878Z,36.13
2016-08-28T06:59:35.390Z,36.42
2016-08-28T07:00:33.901Z,36.42
2016-08-28T07:01:34.805Z,36.13
2016-08-28T07:02:33.909Z,36.22
2016-08-28T07:03:34.584Z,35.93
2016-08-28T07:04:33.936Z,35.64
2016-08-28T07:05:34.428Z,35.74
2016-08-28T07:06:33.979Z,35.82
2016-08-28T07:07:33.973Z,35.91
2016-08-28T07:08:33.995Z,35.91
2016-08-28T07:09:35.526Z,35.82
2016-08-28T07:10:35.169Z,35.82
2016-08-28T07:11:34.074Z,35.72
2016-08-28T07:12:34.039Z,36.11
2016-08-28T07:13:34.057Z,35.13
2016-08-28T07:14:34.064Z,35.33
2016-08-28T07:15:34.178Z,35.64
2016-08-28T07:16:34.090Z,35.62
2016-08-28T07:17:34.102Z,35.42
2016-08-28T07:18:34.130Z,35.33
2016-08-28T07:19:34.138Z,35.42
2016-08-28T07:20:34.147Z,35.52
2016-08-28T07:21:34.158Z,35.52
2016-08-28T07:22:34.172Z,35.42
2016-08-28T07:23:34.190Z,35.42
2016-08-28T07:24:34.204Z,35.52
2016-08-28T07:25:34.223Z,35.62
2016-08-28T07:26:34.228Z,35.42
2016-08-28T07:27:34.244Z,35.42
2016-08-28T07:28:34.251Z,35.42
2016-08-28T07:29:34.269Z,35.5
2016-08-28T07:30:34.279Z,35.21
2016-08-28T07:31:34.301Z,35.89
2016-08-28T07:32:34.307Z,36.01
2016-08-28T07:33:34.335Z,35.89
2016-08-28T07:34:34.343Z,35.62
2016-08-28T07:35:34.359Z,35.89
2016-08-28T07:36:34.371Z,35.8
2016-08-28T07:37:34.392Z,35.99
2016-08-28T07:38:34.689Z,35.7
2016-08-28T07:39:34.773Z,35.89
2016-08-28T07:40:34.428Z,35.97
2016-08-28T07:41:34.435Z,36.08
2016-08-28T07:42:34.443Z,35.78
2016-08-28T07:43:34.460Z,35.97
2016-08-28T07:44:34.485Z,35.86
2016-08-28T07:45:34.482Z,36.16
2016-08-28T07:46:34.498Z,36.25
2016-08-28T07:47:34.524Z,36.45
2016-08-28T07:48:34.523Z,36.35
2016-08-28T07:49:49.469Z,36.25
2016-08-28T07:50:34.565Z,36.43
2016-08-28T07:51:34.586Z,36.33
2016-08-28T07:52:34.581Z,36.72
2016-08-28T07:53:34.596Z,37.12
2016-08-28T07:54:34.635Z,36.61
2016-08-28T07:55:34.633Z,36.51
2016-08-28T07:56:34.635Z,36.9
2016-08-28T07:57:34.651Z,37
2016-08-28T07:58:34.663Z,36.71
2016-08-28T07:59:34.681Z,36.71
2016-08-28T08:00:34.693Z,36.71
2016-08-28T08:01:34.705Z,36.9
2016-08-28T08:02:34.724Z,36.9
2016-08-28T08:03:34.737Z,37.49
2016-08-28T08:04:34.750Z,37.79
2016-08-28T08:05:34.756Z,37.79
2016-08-28T08:06:34.775Z,37.57
2016-08-28T08:07:34.789Z,37.27
2016-08-28T08:08:34.802Z,37.77
2016-08-28T08:09:34.867Z,37.87
2016-08-28T08:10:34.833Z,37.47
2016-08-28T08:11:34.841Z,37.47
2016-08-28T08:12:34.852Z,37.87
2016-08-28T08:13:34.871Z,37.87
2016-08-28T08:14:34.880Z,37.77
2016-08-28T08:15:34.893Z,37.96
2016-08-28T08:16:34.913Z,37.75
2016-08-28T08:17:34.924Z,37.75
2016-08-28T08:18:34.941Z,37.95
2016-08-28T08:19:34.946Z,38.02
2016-08-28T08:20:34.993Z,38.32
2016-08-28T08:21:34.992Z,38.22
2016-08-28T08:22:34.994Z,38.32
2016-08-28T08:23:35.002Z,38.22
2016-08-28T08:24:35.033Z,38.12
2016-08-28T08:25:35.049Z,38.22
2016-08-28T08:26:35.049Z,38.2
2016-08-28T08:27:35.059Z,38.67
2016-08-28T08:28:35.068Z,38.67
2016-08-28T08:29:35.098Z,38.96
2016-08-28T08:30:35.096Z,39.33
2016-08-28T08:31:35.115Z,39.22
2016-08-28T08:32:35.121Z,39.61
2016-08-28T08:33:35.133Z,40.39
2016-08-28T08:34:35.140Z,40.47
2016-08-28T08:35:35.171Z,40.95
2016-08-28T08:36:35.163Z,40.76
2016-08-28T08:37:35.177Z,41.35
2016-08-28T08:38:35.189Z,41.71
2016-08-28T08:39:35.194Z,41.61
2016-08-28T08:40:35.200Z,41.61
2016-08-28T08:41:35.222Z,41.99
2016-08-28T08:42:35.226Z,41.99
2016-08-28T08:43:35.227Z,42.18
2016-08-28T08:44:35.239Z,42.08
2016-08-28T08:45:35.277Z,42.38
2016-08-28T08:46:35.266Z,42.28
2016-08-28T08:47:35.277Z,42.25
2016-08-28T08:48:35.272Z,42.25
2016-08-28T08:49:35.287Z,42.65
2016-08-28T08:50:35.289Z,42.84
2016-08-28T08:51:35.315Z,42.74
2016-08-28T08:52:35.308Z,43.13
2016-08-28T08:53:35.320Z,43.21
2016-08-28T08:54:35.333Z,43.21
2016-08-28T08:55:35.346Z,43.01
2016-08-28T08:56:35.337Z,43.52
2016-08-28T08:57:35.642Z,43.79
2016-08-28T08:58:35.360Z,44.48
2016-08-28T08:59:35.609Z,44.38
2016-08-28T09:00:35.436Z,44.28
2016-08-28T09:01:35.378Z,43.99
2016-08-28T09:02:35.390Z,43.79
2016-08-28T09:03:35.405Z,43.6
2016-08-28T09:04:35.894Z,43.6
2016-08-28T09:05:35.406Z,43.5
2016-08-28T09:06:35.656Z,42.91
2016-08-28T09:07:36.124Z,43.01
2016-08-28T09:08:35.426Z,42.45
2016-08-28T09:09:36.026Z,42.25
2016-08-28T09:10:35.533Z,42.24
2016-08-28T09:11:35.460Z,42.35
2016-08-28T09:12:35.451Z,42.14
2016-08-28T09:13:35.457Z,42.14
2016-08-28T09:14:35.471Z,41.86
2016-08-28T09:15:35.474Z,41.86
2016-08-28T09:16:35.472Z,41.57
2016-08-28T09:17:35.490Z,41.67
2016-08-28T09:18:35.500Z,41.77
2016-08-28T09:19:35.494Z,41.57
2016-08-28T09:20:35.499Z,41.67
2016-08-28T09:21:35.504Z,41.57
2016-08-28T09:22:35.533Z,41.86
2016-08-28T09:23:35.520Z,41.96
2016-08-28T09:24:35.527Z,41.48
2016-08-28T09:25:35.535Z,41.57
2016-08-28T09:26:35.538Z,41.67
2016-08-28T09:27:35.547Z,41.57
2016-08-28T09:28:35.568Z,41.48
2016-08-28T09:29:35.561Z,41.67
2016-08-28T09:30:35.565Z,41.48
2016-08-28T09:31:35.577Z,41.67
2016-08-28T09:32:35.577Z,41.38
2016-08-28T09:33:35.582Z,41.3
2016-08-28T09:34:35.603Z,41.19
2016-08-28T09:35:35.599Z,40.91
2016-08-28T09:36:35.610Z,41.11
2016-08-28T09:37:35.610Z,40.81
2016-08-28T09:38:35.628Z,40.72
2016-08-28T09:39:35.628Z,40.62
2016-08-28T09:40:35.629Z,40.72
2016-08-28T09:41:35.641Z,40.81
2016-08-28T09:42:35.654Z,40.91
2016-08-28T09:43:35.650Z,40.42
2016-08-28T09:44:35.657Z,40.45
2016-08-28T09:45:35.674Z,40.45
2016-08-28T09:46:35.676Z,40.55
2016-08-28T09:47:35.679Z,40.45
2016-08-28T09:48:35.686Z,40.73
2016-08-28T09:49:35.700Z,40.55
2016-08-28T09:50:35.694Z,40.45
2016-08-28T09:51:35.716Z,40.35
2016-08-28T09:52:35.712Z,40.64
2016-08-28T09:53:35.729Z,40.55
2016-08-28T09:54:35.727Z,40.35
2016-08-28T09:55:35.736Z,40.06
2016-08-28T09:56:35.749Z,40.16
2016-08-28T09:57:35.745Z,39.96
2016-08-28T09:58:35.753Z,39.96
2016-08-28T09:59:35.757Z,39.88
2016-08-28T10:00:35.770Z,39.88
2016-08-28T10:01:35.787Z,39.59
2016-08-28T10:02:35.780Z,39.29
2016-08-28T10:03:35.784Z,39.29
2016-08-28T10:04:35.789Z,39.49
2016-08-28T10:05:35.816Z,39.69
2016-08-28T10:06:35.807Z,39.1
2016-08-28T10:07:35.824Z,39.39
2016-08-28T10:08:35.821Z,39.41
2016-08-28T10:09:35.831Z,39.12
2016-08-28T10:10:35.934Z,39.02
2016-08-28T10:11:35.838Z,39.12
2016-08-28T10:12:35.862Z,39.02
2016-08-28T10:13:35.873Z,39.12
2016-08-28T10:14:35.871Z,39.02
2016-08-28T10:16:36.429Z,39.12
2016-08-28T10:17:35.884Z,38.63
2016-08-28T10:18:35.900Z,38.73
2016-08-28T10:19:37.419Z,38.63
2016-08-28T10:20:35.905Z,38.43
2016-08-28T10:21:36.098Z,38.35
2016-08-28T10:22:36.372Z,38.16
2016-08-28T10:23:36.439Z,38.26
2016-08-28T10:24:35.998Z,38.16
2016-08-28T10:25:36.643Z,38.26
2016-08-28T10:26:35.950Z,38.16
2016-08-28T10:27:36.778Z,38.09
2016-08-28T10:28:36.139Z,38.28
2016-08-28T10:29:37.313Z,37.99
2016-08-28T10:30:35.975Z,38.09
2016-08-28T10:31:35.984Z,37.79
2016-08-28T10:32:36.026Z,37.7
2016-08-28T10:33:36.361Z,37.81
2016-08-28T10:34:36.159Z,37.62
2016-08-28T10:35:36.011Z,37.62
2016-08-28T10:36:36.018Z,37.41
2016-08-28T10:37:36.035Z,37.41
2016-08-28T10:38:36.045Z,37.02
2016-08-28T10:39:36.044Z,36.55
2016-08-28T10:40:36.050Z,36.75
2016-08-28T10:41:36.059Z,36.26
2016-08-28T10:42:36.074Z,36.26
2016-08-28T10:43:36.079Z,36.16
2016-08-28T10:44:36.085Z,35.97
2016-08-28T10:45:36.091Z,35.97
2016-08-28T10:46:36.102Z,36.26
2016-08-28T10:47:36.111Z,35.77
2016-08-28T10:48:36.132Z,36.08
2016-08-28T10:49:36.127Z,35.69
2016-08-28T10:50:36.135Z,35.6
2016-08-28T10:51:36.142Z,35.11
2016-08-28T10:52:36.145Z,35.21
2016-08-28T10:53:36.188Z,35.4
2016-08-28T10:54:36.162Z,35.13
2016-08-28T10:55:36.176Z,35.03
2016-08-28T10:56:36.185Z,34.93
2016-08-28T10:57:36.192Z,34.93
2016-08-28T10:58:36.199Z,34.54
2016-08-28T10:59:36.209Z,34.64
2016-08-28T11:00:36.218Z,34.83
2016-08-28T11:01:36.221Z,34.83
2016-08-28T11:02:36.245Z,34.54
2016-08-28T11:03:36.240Z,34.54
2016-08-28T11:04:36.257Z,34.93
2016-08-28T11:05:36.253Z,34.54
2016-08-28T11:06:36.261Z,34.64
2016-08-28T11:07:36.274Z,34.34
2016-08-28T11:08:36.293Z,34.24
2016-08-28T11:09:36.298Z,34.06
2016-08-28T11:10:36.402Z,33.67
2016-08-28T11:11:36.304Z,33.67
2016-08-28T11:12:36.323Z,33.87
2016-08-28T11:13:36.324Z,33.87
2016-08-28T11:14:36.340Z,33.87
2016-08-28T11:15:36.339Z,33.67
2016-08-28T11:16:36.355Z,33.98
2016-08-28T11:17:36.352Z,33.58
2016-08-28T11:18:36.367Z,33.5
2016-08-28T11:19:36.373Z,33.29
2016-08-28T11:20:36.386Z,33.29
2016-08-28T11:21:36.390Z,33.2
2016-08-28T11:22:36.400Z,33.39
2016-08-28T11:23:36.404Z,33.39
2016-08-28T11:24:36.433Z,33.39
2016-08-28T11:25:36.433Z,33.31
2016-08-28T11:26:36.433Z,33.31
2016-08-28T11:27:36.441Z,33.29
2016-08-28T11:28:36.448Z,33.31
2016-08-28T11:29:36.465Z,33.22
2016-08-28T11:30:36.464Z,33.31
2016-08-28T11:31:36.490Z,33.12
2016-08-28T11:32:36.683Z,33.12
2016-08-28T11:33:36.489Z,33.12
2016-08-28T11:34:36.500Z,32.63
2016-08-28T11:35:36.613Z,32.63
2016-08-28T11:36:36.518Z,32.74
2016-08-28T11:37:36.563Z,32.73
2016-08-28T11:38:36.600Z,32.25
2016-08-28T11:39:37.549Z,32.84
2016-08-28T11:40:37.839Z,32.34
2016-08-28T11:41:36.568Z,32.74
2016-08-28T11:42:37.805Z,32.06
2016-08-28T11:43:37.288Z,32.64
2016-08-28T11:44:36.585Z,32.64
2016-08-28T11:45:37.302Z,32.25
2016-08-28T11:46:36.768Z,32.25
2016-08-28T11:47:36.880Z,32.25
2016-08-28T11:48:36.620Z,32.06
2016-08-28T11:49:36.641Z,32.15
2016-08-28T11:50:36.640Z,32.17
2016-08-28T11:51:36.645Z,31.77
2016-08-28T11:52:36.670Z,31.77
2016-08-28T11:53:36.663Z,31.58
2016-08-28T11:54:36.685Z,32.07
2016-08-28T11:55:36.688Z,32.17
2016-08-28T11:56:36.691Z,32.27
2016-08-28T11:57:36.704Z,31.7
2016-08-28T11:58:36.709Z,31.99
2016-08-28T11:59:36.718Z,31.89
2016-08-28T12:00:36.739Z,31.89
2016-08-28T12:01:36.736Z,31.5
2016-08-28T12:02:36.746Z,31.6
2016-08-28T12:03:36.757Z,31.3
2016-08-28T12:04:36.781Z,31.2
2016-08-28T12:05:36.773Z,31.2
2016-08-28T12:06:36.788Z,30.62
2016-08-28T12:07:36.790Z,30.73
2016-08-28T12:08:36.812Z,30.32
2016-08-28T12:09:36.815Z,30.24
2016-08-28T12:10:36.825Z,30.43
2016-08-28T12:11:36.835Z,30.43
2016-08-28T12:12:36.837Z,30.53
2016-08-28T12:13:36.848Z,30.63
2016-08-28T12:14:36.863Z,30.53
2016-08-28T12:15:36.865Z,30.33
2016-08-28T12:16:36.893Z,30.74
2016-08-28T12:17:36.883Z,30.33
2016-08-28T12:18:36.910Z,30.43
2016-08-28T12:19:36.903Z,30.65
2016-08-28T12:20:36.918Z,30.25
2016-08-28T12:21:36.921Z,30.65
2016-08-28T12:22:36.948Z,30.35
2016-08-28T12:23:36.940Z,30.45
2016-08-28T12:24:36.955Z,30.05
2016-08-28T12:25:36.962Z,30.07
2016-08-28T12:26:36.969Z,30.27
2016-08-28T12:27:36.978Z,29.77
2016-08-28T12:28:36.988Z,29.87
2016-08-28T12:29:37.000Z,29.48
2016-08-28T12:30:37.006Z,29.38
2016-08-28T12:31:37.016Z,28.99
2016-08-28T12:32:37.038Z,28.79
2016-08-28T12:33:37.040Z,28.69
2016-08-28T12:34:37.065Z,28.91
2016-08-28T12:35:37.056Z,28.81
2016-08-28T12:36:37.073Z,28.91
2016-08-28T12:37:37.074Z,28.22
2016-08-28T12:38:37.101Z,28.22
2016-08-28T12:39:37.103Z,28.02
2016-08-28T12:40:37.112Z,27.53
2016-08-28T12:41:37.115Z,26.84
2016-08-28T12:42:37.140Z,26.74
2016-08-28T12:43:37.132Z,26.75
2016-08-28T12:44:37.143Z,25.67
2016-08-28T12:45:37.153Z,25.18
2016-08-28T12:46:37.160Z,25.18
2016-08-28T12:47:37.173Z,25.28
2016-08-28T12:48:37.181Z,24.98
2016-08-28T12:49:37.846Z,24.98
2016-08-28T12:50:37.201Z,25.08
2016-08-28T12:51:37.214Z,25.08
2016-08-28T12:52:37.230Z,24.88
2016-08-28T12:53:37.933Z,24.4
2016-08-28T12:56:37.353Z,24.98
2016-08-28T12:57:37.278Z,24.4
2016-08-28T12:58:38.607Z,24.69
2016-08-28T12:59:37.641Z,24.49
2016-08-28T13:00:37.708Z,24.4
2016-08-28T13:01:37.317Z,24.1
2016-08-28T13:02:37.672Z,24.4
2016-08-28T13:03:39.208Z,24.19
2016-08-28T13:04:37.411Z,24.29
2016-08-28T13:05:37.352Z,24.1
2016-08-28T13:06:37.896Z,24.19
2016-08-28T13:07:38.086Z,24.1
2016-08-28T13:08:37.381Z,23.72